Forks, WA

6:09 PM PST on December 20, 2014 (GMT -0800)
Quillayute | Change Station
CLOSE
Current Station
Airport
Location: Quillayute,
Elevation: 194 ft
Nearby Weather Stations
Active Advisory: Areal Flood Watch Active Notice: Record Report

Elev 194 ft 47.94 °N, 124.56 °W | Updated 16 minutes ago

Overcast
Overcast
55 °F
Feels Like 55 °F
N
21
Wind Variable Wind from SW
Gusts 29 mph

Today
High -- | Low -- °F
--% Chance of Precip.
Yesterday
High -- | Low -- °F
Precip. -- in
8:04 AM 4:27 PM
Waning Crescent, 1% visible
Pressure 29.42 in
Visibility 4.0 miles
Clouds Overcast 500 ft
Dew Point 54 °F
Humidity 96%
Rainfall 0.99 in
Snow Depth Not available.
UV 0 out of 12
Pollen .50 out of 12
Air Quality Not available.
Flu Activity Not available.
METAR KUIL 210153Z AUTO 23018G25KT 4SM -RA BR OVC005 13/12 A2942 RMK AO2 PK WND 23029/0122 RAE0058B39 SLP961 P0001 T01280122 $

More Conditions Fewer Conditions

Pressure 29.42 in
Visibility 4.0 miles
Clouds Overcast 500 ft
Dew Point 54 °F
Humidity 96%
Rainfall 0.99 in
Snow Depth Not available.
UV 0 out of 12
Pollen .50 out of 12
Air Quality Not available.
Flu Activity Not available.
METAR KUIL 210153Z AUTO 23018G25KT 4SM -RA BR OVC005 13/12 A2942 RMK AO2 PK WND 23029/0122 RAE0058B39 SLP961 P0001 T01280122 $

More Conditions Fewer Conditions

10-Day Weather Forecast

Almanac

Astronomy

Dec. 20, 2014 Rise Set
Actual Time
Civil Twilight
Nautical Twilight
Astronomical Twilight
Moon
Length of Visible Light
Length of Day
Tomorrow will be .
, % of the Moon is Illuminated

Today's Extremes

State Highs State Lows

Community

WunderPhotos

Upload Photos

1,779,346 photos uploaded!

WunderBlogs® & News

Nearby

Air Quality

  Air Quality AQ Index Pollutant
Not available.

Snow Depth

Station Depth Elevation

Earthquake Activity

City Distance Mag. Time & Date
Minimum magnitude displayed is 2.5.

Coastal Water Temperatures

Place Temperature

Nearby Weather Stations